sensor_id;sensor_type;location;lat;lon;timestamp;temperature;humidity
72320;SHT30;60269;52.502;16.732;2023-02-01T00:00:09;2.76;91.73
72320;SHT30;60269;52.502;16.732;2023-02-01T00:03:47;2.75;91.71
72320;SHT30;60269;52.502;16.732;2023-02-01T00:07:20;2.86;91.09
72320;SHT30;60269;52.502;16.732;2023-02-01T00:11:01;2.88;90.84
72320;SHT30;60269;52.502;16.732;2023-02-01T00:14:34;2.83;91.07
72320;SHT30;60269;52.502;16.732;2023-02-01T00:18:10;2.82;90.97
72320;SHT30;60269;52.502;16.732;2023-02-01T00:21:42;2.86;90.67
72320;SHT30;60269;52.502;16.732;2023-02-01T00:25:16;2.69;91.47
72320;SHT30;60269;52.502;16.732;2023-02-01T00:28:48;2.69;91.31
72320;SHT30;60269;52.502;16.732;2023-02-01T00:32:20;2.71;90.98
72320;SHT30;60269;52.502;16.732;2023-02-01T00:35:56;2.83;90.06
72320;SHT30;60269;52.502;16.732;2023-02-01T00:39:28;2.68;90.82
72320;SHT30;60269;52.502;16.732;2023-02-01T00:43:01;2.73;90.88
72320;SHT30;60269;52.502;16.732;2023-02-01T00:46:35;2.89;90.04
72320;SHT30;60269;52.502;16.732;2023-02-01T00:50:07;2.73;90.95
72320;SHT30;60269;52.502;16.732;2023-02-01T00:53:42;2.76;90.61
72320;SHT30;60269;52.502;16.732;2023-02-01T00:57:15;2.85;90.41
72320;SHT30;60269;52.502;16.732;2023-02-01T01:00:47;2.81;90.65
72320;SHT30;60269;52.502;16.732;2023-02-01T01:04:22;2.85;90.49
72320;SHT30;60269;52.502;16.732;2023-02-01T01:07:54;2.91;90.24
72320;SHT30;60269;52.502;16.732;2023-02-01T01:11:29;2.95;90.13
72320;SHT30;60269;52.502;16.732;2023-02-01T01:15:02;2.95;90.16
72320;SHT30;60269;52.502;16.732;2023-02-01T01:18:35;2.93;90.32
72320;SHT30;60269;52.502;16.732;2023-02-01T01:22:07;3.06;89.91
72320;SHT30;60269;52.502;16.732;2023-02-01T01:25:39;3.17;89.33
72320;SHT30;60269;52.502;16.732;2023-02-01T01:29:11;3.20;89.47
72320;SHT30;60269;52.502;16.732;2023-02-01T01:32:43;3.24;89.10
72320;SHT30;60269;52.502;16.732;2023-02-01T01:36:15;3.21;89.13
72320;SHT30;60269;52.502;16.732;2023-02-01T01:39:48;3.20;89.35
72320;SHT30;60269;52.502;16.732;2023-02-01T01:43:20;3.33;88.02
72320;SHT30;60269;52.502;16.732;2023-02-01T01:46:54;3.47;87.06
72320;SHT30;60269;52.502;16.732;2023-02-01T01:50:37;3.45;87.08
72320;SHT30;60269;52.502;16.732;2023-02-01T01:54:17;3.31;88.28
72320;SHT30;60269;52.502;16.732;2023-02-01T01:57:55;3.27;88.36
72320;SHT30;60269;52.502;16.732;2023-02-01T02:01:29;3.34;87.71
72320;SHT30;60269;52.502;16.732;2023-02-01T02:05:01;3.40;87.41
72320;SHT30;60269;52.502;16.732;2023-02-01T02:08:33;3.23;87.77
72320;SHT30;60269;52.502;16.732;2023-02-01T02:12:05;3.16;87.81
72320;SHT30;60269;52.502;16.732;2023-02-01T02:15:42;3.14;87.56
72320;SHT30;60269;52.502;16.732;2023-02-01T02:34:46;3.12;88.64
72320;SHT30;60269;52.502;16.732;2023-02-01T02:38:36;2.76;90.20
72320;SHT30;60269;52.502;16.732;2023-02-01T02:42:29;2.56;90.62
72320;SHT30;60269;52.502;16.732;2023-02-01T02:46:26;2.65;89.92
72320;SHT30;60269;52.502;16.732;2023-02-01T02:50:29;2.56;90.11
72320;SHT30;60269;52.502;16.732;2023-02-01T02:54:27;2.58;89.86
72320;SHT30;60269;52.502;16.732;2023-02-01T02:58:19;2.59;89.79
72320;SHT30;60269;52.502;16.732;2023-02-01T03:02:10;2.68;89.42
72320;SHT30;60269;52.502;16.732;2023-02-01T03:06:02;2.76;88.97
72320;SHT30;60269;52.502;16.732;2023-02-01T03:09:35;2.65;89.34
72320;SHT30;60269;52.502;16.732;2023-02-01T03:17:11;2.83;88.71
72320;SHT30;60269;52.502;16.732;2023-02-01T03:20:47;2.76;89.01
72320;SHT30;60269;52.502;16.732;2023-02-01T03:24:25;2.86;88.70
72320;SHT30;60269;52.502;16.732;2023-02-01T03:28:07;2.81;88.57
72320;SHT30;60269;52.502;16.732;2023-02-01T03:31:41;2.85;88.43
72320;SHT30;60269;52.502;16.732;2023-02-01T03:35:13;2.71;89.02
72320;SHT30;60269;52.502;16.732;2023-02-01T03:39:13;2.75;88.64
72320;SHT30;60269;52.502;16.732;2023-02-01T03:42:50;2.82;88.40
72320;SHT30;60269;52.502;16.732;2023-02-01T03:46:33;2.85;88.10
72320;SHT30;60269;52.502;16.732;2023-02-01T03:50:10;2.75;88.23
72320;SHT30;60269;52.502;16.732;2023-02-01T03:53:43;2.89;87.73
72320;SHT30;60269;52.502;16.732;2023-02-01T03:57:22;2.96;87.31
72320;SHT30;60269;52.502;16.732;2023-02-01T04:00:59;2.91;87.34
72320;SHT30;60269;52.502;16.732;2023-02-01T04:04:31;3.00;87.03
72320;SHT30;60269;52.502;16.732;2023-02-01T04:08:04;3.06;86.73
72320;SHT30;60269;52.502;16.732;2023-02-01T04:11:36;3.03;86.86
72320;SHT30;60269;52.502;16.732;2023-02-01T04:15:09;3.14;86.40
72320;SHT30;60269;52.502;16.732;2023-02-01T04:18:41;3.30;85.27
72320;SHT30;60269;52.502;16.732;2023-02-01T04:22:13;3.17;86.01
72320;SHT30;60269;52.502;16.732;2023-02-01T04:25:44;3.16;86.40
72320;SHT30;60269;52.502;16.732;2023-02-01T04:29:16;3.26;85.65
72320;SHT30;60269;52.502;16.732;2023-02-01T04:32:48;3.23;86.07
72320;SHT30;60269;52.502;16.732;2023-02-01T04:36:21;3.41;85.06
72320;SHT30;60269;52.502;16.732;2023-02-01T04:39:53;3.38;85.52
72320;SHT30;60269;52.502;16.732;2023-02-01T04:43:25;3.35;85.67
72320;SHT30;60269;52.502;16.732;2023-02-01T04:46:57;3.44;85.60
72320;SHT30;60269;52.502;16.732;2023-02-01T04:50:30;3.61;84.57
72320;SHT30;60269;52.502;16.732;2023-02-01T04:54:02;3.58;85.05
72320;SHT30;60269;52.502;16.732;2023-02-01T04:57:34;3.38;85.79
72320;SHT30;60269;52.502;16.732;2023-02-01T05:01:06;3.34;85.90
72320;SHT30;60269;52.502;16.732;2023-02-01T05:04:38;3.41;85.18
72320;SHT30;60269;52.502;16.732;2023-02-01T05:08:11;3.50;84.91
72320;SHT30;60269;52.502;16.732;2023-02-01T05:11:43;3.57;84.85
72320;SHT30;60269;52.502;16.732;2023-02-01T05:15:34;3.57;85.00
72320;SHT30;60269;52.502;16.732;2023-02-01T05:19:06;3.54;85.37
72320;SHT30;60269;52.502;16.732;2023-02-01T05:22:38;3.55;85.57
72320;SHT30;60269;52.502;16.732;2023-02-01T05:26:11;3.58;85.26
72320;SHT30;60269;52.502;16.732;2023-02-01T05:29:43;3.47;85.93
72320;SHT30;60269;52.502;16.732;2023-02-01T05:33:15;3.30;86.66
72320;SHT30;60269;52.502;16.732;2023-02-01T05:36:46;3.26;86.69
72320;SHT30;60269;52.502;16.732;2023-02-01T05:40:19;3.26;86.74
72320;SHT30;60269;52.502;16.732;2023-02-01T05:43:50;3.28;86.60
72320;SHT30;60269;52.502;16.732;2023-02-01T05:47:23;3.34;86.25
72320;SHT30;60269;52.502;16.732;2023-02-01T05:50:55;3.37;86.32
72320;SHT30;60269;52.502;16.732;2023-02-01T05:54:27;3.34;86.27
72320;SHT30;60269;52.502;16.732;2023-02-01T05:57:59;3.37;86.27
72320;SHT30;60269;52.502;16.732;2023-02-01T06:01:33;3.41;86.19
72320;SHT30;60269;52.502;16.732;2023-02-01T06:05:05;3.40;86.20
72320;SHT30;60269;52.502;16.732;2023-02-01T06:08:37;3.48;85.79
72320;SHT30;60269;52.502;16.732;2023-02-01T06:12:11;3.48;85.90
72320;SHT30;60269;52.502;16.732;2023-02-01T06:15:43;3.51;85.58
72320;SHT30;60269;52.502;16.732;2023-02-01T06:19:16;3.55;85.67
72320;SHT30;60269;52.502;16.732;2023-02-01T06:22:48;3.52;85.79
72320;SHT30;60269;52.502;16.732;2023-02-01T06:26:20;3.55;85.72
72320;SHT30;60269;52.502;16.732;2023-02-01T06:29:52;3.54;85.96
72320;SHT30;60269;52.502;16.732;2023-02-01T06:33:24;3.60;85.81
72320;SHT30;60269;52.502;16.732;2023-02-01T06:36:56;3.57;86.12
72320;SHT30;60269;52.502;16.732;2023-02-01T06:40:29;3.54;86.76
72320;SHT30;60269;52.502;16.732;2023-02-01T06:44:01;3.55;86.79
72320;SHT30;60269;52.502;16.732;2023-02-01T06:47:33;3.54;87.11
72320;SHT30;60269;52.502;16.732;2023-02-01T06:51:05;3.54;86.92
72320;SHT30;60269;52.502;16.732;2023-02-01T06:54:37;3.48;87.69
72320;SHT30;60269;52.502;16.732;2023-02-01T06:58:09;3.42;88.13
72320;SHT30;60269;52.502;16.732;2023-02-01T07:01:42;3.52;87.39
72320;SHT30;60269;52.502;16.732;2023-02-01T07:05:15;3.51;88.02
72320;SHT30;60269;52.502;16.732;2023-02-01T07:08:47;3.34;89.81
72320;SHT30;60269;52.502;16.732;2023-02-01T07:12:19;3.33;89.71
72320;SHT30;60269;52.502;16.732;2023-02-01T07:15:51;3.38;89.23
72320;SHT30;60269;52.502;16.732;2023-02-01T07:19:23;3.42;89.40
72320;SHT30;60269;52.502;16.732;2023-02-01T07:22:56;3.45;89.12
72320;SHT30;60269;52.502;16.732;2023-02-01T07:26:28;3.45;89.17
72320;SHT30;60269;52.502;16.732;2023-02-01T07:30:00;3.47;89.03
72320;SHT30;60269;52.502;16.732;2023-02-01T07:33:34;3.47;88.83
72320;SHT30;60269;52.502;16.732;2023-02-01T07:37:06;3.47;89.04
72320;SHT30;60269;52.502;16.732;2023-02-01T07:40:38;3.45;88.97
72320;SHT30;60269;52.502;16.732;2023-02-01T07:44:10;3.51;88.71
72320;SHT30;60269;52.502;16.732;2023-02-01T07:47:42;3.52;88.63
72320;SHT30;60269;52.502;16.732;2023-02-01T07:51:16;3.60;87.95
72320;SHT30;60269;52.502;16.732;2023-02-01T07:54:48;3.60;88.37
72320;SHT30;60269;52.502;16.732;2023-02-01T07:58:20;3.62;87.93
72320;SHT30;60269;52.502;16.732;2023-02-01T08:01:52;3.71;87.24
72320;SHT30;60269;52.502;16.732;2023-02-01T08:05:25;3.82;86.82
72320;SHT30;60269;52.502;16.732;2023-02-01T08:08:57;3.89;86.27
72320;SHT30;60269;52.502;16.732;2023-02-01T08:12:30;3.90;86.08
72320;SHT30;60269;52.502;16.732;2023-02-01T08:16:03;3.93;86.21
72320;SHT30;60269;52.502;16.732;2023-02-01T08:19:37;3.89;86.36
72320;SHT30;60269;52.502;16.732;2023-02-01T08:23:09;3.90;86.29
72320;SHT30;60269;52.502;16.732;2023-02-01T08:26:41;3.89;86.36
72320;SHT30;60269;52.502;16.732;2023-02-01T08:30:13;3.90;86.78
72320;SHT30;60269;52.502;16.732;2023-02-01T08:33:49;3.93;86.81
72320;SHT30;60269;52.502;16.732;2023-02-01T08:37:22;4.02;86.26
72320;SHT30;60269;52.502;16.732;2023-02-01T08:40:54;4.09;86.13
72320;SHT30;60269;52.502;16.732;2023-02-01T08:44:26;4.06;86.60
72320;SHT30;60269;52.502;16.732;2023-02-01T08:47:58;4.03;86.62
72320;SHT30;60269;52.502;16.732;2023-02-01T08:51:30;4.06;86.01
72320;SHT30;60269;52.502;16.732;2023-02-01T08:55:02;4.11;85.69
72320;SHT30;60269;52.502;16.732;2023-02-01T08:58:34;4.16;85.47
72320;SHT30;60269;52.502;16.732;2023-02-01T09:02:12;4.20;85.75
72320;SHT30;60269;52.502;16.732;2023-02-01T09:05:44;4.19;85.75
72320;SHT30;60269;52.502;16.732;2023-02-01T09:09:24;4.20;85.75
72320;SHT30;60269;52.502;16.732;2023-02-01T09:12:56;4.16;86.10
72320;SHT30;60269;52.502;16.732;2023-02-01T09:16:27;4.14;86.63
72320;SHT30;60269;52.502;16.732;2023-02-01T09:19:59;4.06;87.51
72320;SHT30;60269;52.502;16.732;2023-02-01T09:23:31;3.93;89.16
72320;SHT30;60269;52.502;16.732;2023-02-01T09:27:03;3.75;90.10
72320;SHT30;60269;52.502;16.732;2023-02-01T09:30:36;3.48;91.36
72320;SHT30;60269;52.502;16.732;2023-02-01T09:34:09;3.40;93.63
72320;SHT30;60269;52.502;16.732;2023-02-01T09:37:41;3.24;93.06
72320;SHT30;60269;52.502;16.732;2023-02-01T09:45:24;3.13;94.78
72320;SHT30;60269;52.502;16.732;2023-02-01T09:49:08;3.14;95.51
72320;SHT30;60269;52.502;16.732;2023-02-01T09:52:45;3.10;95.34
72320;SHT30;60269;52.502;16.732;2023-02-01T09:56:23;3.04;95.15
72320;SHT30;60269;52.502;16.732;2023-02-01T10:00:09;3.04;95.91
72320;SHT30;60269;52.502;16.732;2023-02-01T10:03:47;3.06;95.81
72320;SHT30;60269;52.502;16.732;2023-02-01T10:27:22;3.19;97.13
72320;SHT30;60269;52.502;16.732;2023-02-01T10:30:57;3.21;96.46
72320;SHT30;60269;52.502;16.732;2023-02-01T10:34:33;3.24;96.40
72320;SHT30;60269;52.502;16.732;2023-02-01T10:38:14;3.34;96.17
72320;SHT30;60269;52.502;16.732;2023-02-01T10:41:48;3.45;96.09
72320;SHT30;60269;52.502;16.732;2023-02-01T10:45:22;3.60;95.11
72320;SHT30;60269;52.502;16.732;2023-02-01T10:48:56;3.85;95.51
72320;SHT30;60269;52.502;16.732;2023-02-01T10:56:11;3.64;95.95
72320;SHT30;60269;52.502;16.732;2023-02-01T10:59:43;3.50;95.56
72320;SHT30;60269;52.502;16.732;2023-02-01T11:07:28;3.45;95.89
72320;SHT30;60269;52.502;16.732;2023-02-01T11:11:02;3.45;95.69
72320;SHT30;60269;52.502;16.732;2023-02-01T11:14:39;3.40;95.55
72320;SHT30;60269;52.502;16.732;2023-02-01T11:18:19;3.37;95.86
72320;SHT30;60269;52.502;16.732;2023-02-01T11:21:57;3.31;95.78
72320;SHT30;60269;52.502;16.732;2023-02-01T11:25:30;3.31;95.98
72320;SHT30;60269;52.502;16.732;2023-02-01T11:29:08;3.33;96.35
72320;SHT30;60269;52.502;16.732;2023-02-01T11:32:41;3.33;96.95
72320;SHT30;60269;52.502;16.732;2023-02-01T11:36:26;3.40;96.70
72320;SHT30;60269;52.502;16.732;2023-02-01T11:43:55;3.28;96.81
72320;SHT30;60269;52.502;16.732;2023-02-01T11:47:30;3.28;97.02
72320;SHT30;60269;52.502;16.732;2023-02-01T12:07:04;3.47;96.06
72320;SHT30;60269;52.502;16.732;2023-02-01T12:11:02;3.50;96.03
72320;SHT30;60269;52.502;16.732;2023-02-01T12:22:29;3.55;94.92
72320;SHT30;60269;52.502;16.732;2023-02-01T12:26:34;3.69;94.80
72320;SHT30;60269;52.502;16.732;2023-02-01T12:30:14;3.89;92.67
72320;SHT30;60269;52.502;16.732;2023-02-01T12:34:13;3.98;92.24
72320;SHT30;60269;52.502;16.732;2023-02-01T12:45:50;3.83;92.27
72320;SHT30;60269;52.502;16.732;2023-02-01T12:49:28;3.83;92.18
72320;SHT30;60269;52.502;16.732;2023-02-01T12:53:14;3.86;91.18
72320;SHT30;60269;52.502;16.732;2023-02-01T13:00:39;4.06;90.65
72320;SHT30;60269;52.502;16.732;2023-02-01T13:04:20;4.37;89.27
72320;SHT30;60269;52.502;16.732;2023-02-01T13:08:00;4.54;88.75
72320;SHT30;60269;52.502;16.732;2023-02-01T13:11:38;4.41;88.90
72320;SHT30;60269;52.502;16.732;2023-02-01T13:15:23;4.34;89.84
72320;SHT30;60269;52.502;16.732;2023-02-01T13:19:03;4.03;91.25
72320;SHT30;60269;52.502;16.732;2023-02-01T13:22:39;3.88;92.32
72320;SHT30;60269;52.502;16.732;2023-02-01T13:26:13;3.72;93.05
72320;SHT30;60269;52.502;16.732;2023-02-01T13:30:01;3.77;92.84
72320;SHT30;60269;52.502;16.732;2023-02-01T13:33:53;3.78;92.83
72320;SHT30;60269;52.502;16.732;2023-02-01T13:38:14;3.83;90.88
72320;SHT30;60269;52.502;16.732;2023-02-01T13:42:05;3.88;90.66
72320;SHT30;60269;52.502;16.732;2023-02-01T13:45:52;4.06;89.40
72320;SHT30;60269;52.502;16.732;2023-02-01T13:49:28;4.05;89.77
72320;SHT30;60269;52.502;16.732;2023-02-01T13:53:15;4.13;89.69
72320;SHT30;60269;52.502;16.732;2023-02-01T13:56:48;4.16;89.85
72320;SHT30;60269;52.502;16.732;2023-02-01T14:04:05;4.11;88.99
72320;SHT30;60269;52.502;16.732;2023-02-01T14:12:41;4.40;89.00
72320;SHT30;60269;52.502;16.732;2023-02-01T14:19:36;4.47;88.34
72320;SHT30;60269;52.502;16.732;2023-02-01T14:23:12;4.98;86.30
72320;SHT30;60269;52.502;16.732;2023-02-01T14:30:48;4.54;87.57
72320;SHT30;60269;52.502;16.732;2023-02-01T14:34:28;4.27;88.67
72320;SHT30;60269;52.502;16.732;2023-02-01T14:38:02;4.23;89.23
72320;SHT30;60269;52.502;16.732;2023-02-01T14:41:39;4.24;88.81
72320;SHT30;60269;52.502;16.732;2023-02-01T14:48:56;3.99;89.84
72320;SHT30;60269;52.502;16.732;2023-02-01T14:52:34;4.05;88.85
72320;SHT30;60269;52.502;16.732;2023-02-01T14:56:13;4.03;89.01
72320;SHT30;60269;52.502;16.732;2023-02-01T14:59:46;3.88;89.79
72320;SHT30;60269;52.502;16.732;2023-02-01T15:07:12;3.69;90.15
72320;SHT30;60269;52.502;16.732;2023-02-01T15:10:48;3.69;89.68
72320;SHT30;60269;52.502;16.732;2023-02-01T15:14:21;3.60;90.02
72320;SHT30;60269;52.502;16.732;2023-02-01T15:17:58;3.58;89.92
72320;SHT30;60269;52.502;16.732;2023-02-01T15:21:43;3.64;89.20
72320;SHT30;60269;52.502;16.732;2023-02-01T15:25:20;3.62;88.71
72320;SHT30;60269;52.502;16.732;2023-02-01T15:28:57;3.60;89.13
72320;SHT30;60269;52.502;16.732;2023-02-01T15:32:34;3.48;89.82
72320;SHT30;60269;52.502;16.732;2023-02-01T15:36:08;3.34;90.81
72320;SHT30;60269;52.502;16.732;2023-02-01T15:47:28;3.58;89.94
72320;SHT30;60269;52.502;16.732;2023-02-01T15:51:03;3.75;89.73
72320;SHT30;60269;52.502;16.732;2023-02-01T15:54:45;3.85;89.61
72320;SHT30;60269;52.502;16.732;2023-02-01T15:58:22;3.88;89.58
72320;SHT30;60269;52.502;16.732;2023-02-01T16:01:55;3.89;89.46
72320;SHT30;60269;52.502;16.732;2023-02-01T16:05:33;3.72;89.92
72320;SHT30;60269;52.502;16.732;2023-02-01T16:09:12;3.51;90.48
72320;SHT30;60269;52.502;16.732;2023-02-01T16:12:46;3.21;91.63
72320;SHT30;60269;52.502;16.732;2023-02-01T16:16:19;3.09;92.23
72320;SHT30;60269;52.502;16.732;2023-02-01T16:19:51;2.97;92.86
72320;SHT30;60269;52.502;16.732;2023-02-01T16:23:23;2.86;93.40
72320;SHT30;60269;52.502;16.732;2023-02-01T16:26:56;2.81;93.93
72320;SHT30;60269;52.502;16.732;2023-02-01T16:30:28;2.85;93.74
72320;SHT30;60269;52.502;16.732;2023-02-01T16:34:00;2.73;94.19
72320;SHT30;60269;52.502;16.732;2023-02-01T16:37:33;2.61;94.78
72320;SHT30;60269;52.502;16.732;2023-02-01T16:41:06;2.56;94.83
72320;SHT30;60269;52.502;16.732;2023-02-01T16:44:38;2.45;95.32
72320;SHT30;60269;52.502;16.732;2023-02-01T16:51:49;2.75;94.29
72320;SHT30;60269;52.502;16.732;2023-02-01T16:55:24;2.88;93.94
72320;SHT30;60269;52.502;16.732;2023-02-01T16:58:58;2.93;93.84
72320;SHT30;60269;52.502;16.732;2023-02-01T17:02:30;2.75;94.72
72320;SHT30;60269;52.502;16.732;2023-02-01T17:06:03;2.82;94.51
72320;SHT30;60269;52.502;16.732;2023-02-01T17:09:36;2.85;94.97
72320;SHT30;60269;52.502;16.732;2023-02-01T17:13:12;2.86;95.25
72320;SHT30;60269;52.502;16.732;2023-02-01T17:16:47;2.86;94.81
72320;SHT30;60269;52.502;16.732;2023-02-01T17:20:24;2.72;95.83
72320;SHT30;60269;52.502;16.732;2023-02-01T17:23:56;2.54;97.03
72320;SHT30;60269;52.502;16.732;2023-02-01T17:27:32;2.40;97.58
72320;SHT30;60269;52.502;16.732;2023-02-01T17:31:04;2.35;98.45
72320;SHT30;60269;52.502;16.732;2023-02-01T17:34:36;2.30;98.50
72320;SHT30;60269;52.502;16.732;2023-02-01T17:38:11;2.23;98.19
72320;SHT30;60269;52.502;16.732;2023-02-01T17:41:44;2.15;98.53
72320;SHT30;60269;52.502;16.732;2023-02-01T17:45:34;2.10;98.38
72320;SHT30;60269;52.502;16.732;2023-02-01T17:49:11;1.99;98.50
72320;SHT30;60269;52.502;16.732;2023-02-01T17:52:46;1.94;98.81
72320;SHT30;60269;52.502;16.732;2023-02-01T17:56:22;1.80;99.30
72320;SHT30;60269;52.502;16.732;2023-02-01T17:59:54;1.77;99.41
72320;SHT30;60269;52.502;16.732;2023-02-01T18:03:31;1.70;99.39
72320;SHT30;60269;52.502;16.732;2023-02-01T18:07:08;1.66;99.66
72320;SHT30;60269;52.502;16.732;2023-02-01T18:10:40;1.75;99.67
72320;SHT30;60269;52.502;16.732;2023-02-01T18:14:12;1.80;99.48
72320;SHT30;60269;52.502;16.732;2023-02-01T18:17:44;1.83;99.50
72320;SHT30;60269;52.502;16.732;2023-02-01T18:21:18;1.89;99.35
72320;SHT30;60269;52.502;16.732;2023-02-01T18:24:50;1.86;99.12
72320;SHT30;60269;52.502;16.732;2023-02-01T18:28:22;1.76;99.21
72320;SHT30;60269;52.502;16.732;2023-02-01T18:31:55;1.73;99.35
72320;SHT30;60269;52.502;16.732;2023-02-01T18:35:30;1.73;99.36
72320;SHT30;60269;52.502;16.732;2023-02-01T18:39:04;1.70;99.35
72320;SHT30;60269;52.502;16.732;2023-02-01T18:42:37;1.66;99.59
72320;SHT30;60269;52.502;16.732;2023-02-01T18:46:10;1.63;99.56
72320;SHT30;60269;52.502;16.732;2023-02-01T18:49:42;1.67;99.61
72320;SHT30;60269;52.502;16.732;2023-02-01T18:53:18;1.66;99.62
72320;SHT30;60269;52.502;16.732;2023-02-01T18:56:51;1.66;99.76
72320;SHT30;60269;52.502;16.732;2023-02-01T19:00:23;1.67;99.74
72320;SHT30;60269;52.502;16.732;2023-02-01T19:03:56;1.63;99.81
72320;SHT30;60269;52.502;16.732;2023-02-01T19:07:52;1.56;99.84
72320;SHT30;60269;52.502;16.732;2023-02-01T19:11:26;1.56;99.75
72320;SHT30;60269;52.502;16.732;2023-02-01T19:15:02;1.55;99.63
72320;SHT30;60269;52.502;16.732;2023-02-01T19:18:35;1.55;99.82
72320;SHT30;60269;52.502;16.732;2023-02-01T19:22:09;1.56;99.71
72320;SHT30;60269;52.502;16.732;2023-02-01T19:25:45;1.59;99.88
72320;SHT30;60269;52.502;16.732;2023-02-01T19:29:17;1.55;99.85
72320;SHT30;60269;52.502;16.732;2023-02-01T19:32:50;1.59;99.98
72320;SHT30;60269;52.502;16.732;2023-02-01T19:36:22;1.60;99.99
72320;SHT30;60269;52.502;16.732;2023-02-01T19:39:57;1.65;99.99
72320;SHT30;60269;52.502;16.732;2023-02-01T19:43:30;1.69;99.99
72320;SHT30;60269;52.502;16.732;2023-02-01T19:47:06;1.75;99.99
72320;SHT30;60269;52.502;16.732;2023-02-01T19:50:39;1.82;99.99
72320;SHT30;60269;52.502;16.732;2023-02-01T19:54:11;1.80;99.94
72320;SHT30;60269;52.502;16.732;2023-02-01T19:57:43;1.89;99.75
72320;SHT30;60269;52.502;16.732;2023-02-01T20:01:16;1.93;99.38
72320;SHT30;60269;52.502;16.732;2023-02-01T20:04:50;1.96;99.18
72320;SHT30;60269;52.502;16.732;2023-02-01T20:08:22;1.96;99.08
72320;SHT30;60269;52.502;16.732;2023-02-01T20:11:55;1.94;99.25
72320;SHT30;60269;52.502;16.732;2023-02-01T20:15:32;1.99;99.34
72320;SHT30;60269;52.502;16.732;2023-02-01T20:19:05;2.02;99.26
72320;SHT30;60269;52.502;16.732;2023-02-01T20:22:37;2.06;99.20
72320;SHT30;60269;52.502;16.732;2023-02-01T20:26:10;2.09;98.98
72320;SHT30;60269;52.502;16.732;2023-02-01T20:29:43;2.11;98.99
72320;SHT30;60269;52.502;16.732;2023-02-01T20:33:15;2.14;99.03
72320;SHT30;60269;52.502;16.732;2023-02-01T20:36:48;2.17;98.92
72320;SHT30;60269;52.502;16.732;2023-02-01T20:40:21;2.21;99.07
72320;SHT30;60269;52.502;16.732;2023-02-01T20:43:53;2.34;99.05
72320;SHT30;60269;52.502;16.732;2023-02-01T20:47:26;2.42;98.86
72320;SHT30;60269;52.502;16.732;2023-02-01T20:50:59;2.49;98.68
72320;SHT30;60269;52.502;16.732;2023-02-01T20:54:32;2.59;98.43
72320;SHT30;60269;52.502;16.732;2023-02-01T20:58:04;2.61;98.55
72320;SHT30;60269;52.502;16.732;2023-02-01T21:01:38;2.71;98.48
72320;SHT30;60269;52.502;16.732;2023-02-01T21:05:24;2.71;98.26
72320;SHT30;60269;52.502;16.732;2023-02-01T21:08:56;2.75;98.13
72320;SHT30;60269;52.502;16.732;2023-02-01T21:12:29;2.76;97.81
72320;SHT30;60269;52.502;16.732;2023-02-01T21:16:02;2.75;97.75
72320;SHT30;60269;52.502;16.732;2023-02-01T21:19:36;2.79;97.48
72320;SHT30;60269;52.502;16.732;2023-02-01T21:23:15;2.78;97.67
72320;SHT30;60269;52.502;16.732;2023-02-01T21:26:47;2.73;97.74
72320;SHT30;60269;52.502;16.732;2023-02-01T21:30:19;2.76;97.88
72320;SHT30;60269;52.502;16.732;2023-02-01T21:33:52;2.82;97.39
72320;SHT30;60269;52.502;16.732;2023-02-01T21:37:25;2.82;97.84
72320;SHT30;60269;52.502;16.732;2023-02-01T21:40:58;2.82;97.65
72320;SHT30;60269;52.502;16.732;2023-02-01T21:44:49;2.82;97.55
72320;SHT30;60269;52.502;16.732;2023-02-01T21:48:22;2.89;96.92
72320;SHT30;60269;52.502;16.732;2023-02-01T21:51:54;2.93;96.59
72320;SHT30;60269;52.502;16.732;2023-02-01T21:55:26;2.93;96.47
72320;SHT30;60269;52.502;16.732;2023-02-01T21:58:58;2.92;96.52
72320;SHT30;60269;52.502;16.732;2023-02-01T22:02:32;2.93;96.34
72320;SHT30;60269;52.502;16.732;2023-02-01T22:06:07;2.95;96.08
72320;SHT30;60269;52.502;16.732;2023-02-01T22:09:39;2.96;96.06
72320;SHT30;60269;52.502;16.732;2023-02-01T22:13:12;3.02;95.96
72320;SHT30;60269;52.502;16.732;2023-02-01T22:16:44;3.00;95.80
72320;SHT30;60269;52.502;16.732;2023-02-01T22:20:17;3.07;95.34
72320;SHT30;60269;52.502;16.732;2023-02-01T22:23:52;3.07;95.52
72320;SHT30;60269;52.502;16.732;2023-02-01T22:27:25;3.09;95.40
72320;SHT30;60269;52.502;16.732;2023-02-01T22:31:18;3.09;95.33
72320;SHT30;60269;52.502;16.732;2023-02-01T22:34:50;3.12;95.08
72320;SHT30;60269;52.502;16.732;2023-02-01T22:38:22;3.09;95.27
72320;SHT30;60269;52.502;16.732;2023-02-01T22:41:55;3.12;95.06
72320;SHT30;60269;52.502;16.732;2023-02-01T22:45:28;3.14;94.90
72320;SHT30;60269;52.502;16.732;2023-02-01T22:49:00;3.13;94.93
72320;SHT30;60269;52.502;16.732;2023-02-01T22:52:32;3.17;94.60
72320;SHT30;60269;52.502;16.732;2023-02-01T22:56:05;3.20;94.41
72320;SHT30;60269;52.502;16.732;2023-02-01T22:59:38;3.26;94.04
72320;SHT30;60269;52.502;16.732;2023-02-01T23:03:10;3.26;94.14
72320;SHT30;60269;52.502;16.732;2023-02-01T23:06:42;3.27;93.91
72320;SHT30;60269;52.502;16.732;2023-02-01T23:10:15;3.34;93.40
72320;SHT30;60269;52.502;16.732;2023-02-01T23:13:48;3.28;93.43
72320;SHT30;60269;52.502;16.732;2023-02-01T23:17:21;3.27;93.82
72320;SHT30;60269;52.502;16.732;2023-02-01T23:20:54;3.34;93.17
72320;SHT30;60269;52.502;16.732;2023-02-01T23:24:26;3.34;93.20
72320;SHT30;60269;52.502;16.732;2023-02-01T23:27:58;3.30;93.15
72320;SHT30;60269;52.502;16.732;2023-02-01T23:31:32;3.37;92.56
72320;SHT30;60269;52.502;16.732;2023-02-01T23:35:06;3.41;92.49
72320;SHT30;60269;52.502;16.732;2023-02-01T23:38:43;3.42;92.64
72320;SHT30;60269;52.502;16.732;2023-02-01T23:42:16;3.40;92.48
72320;SHT30;60269;52.502;16.732;2023-02-01T23:45:48;3.47;91.90
72320;SHT30;60269;52.502;16.732;2023-02-01T23:49:21;3.47;92.02
72320;SHT30;60269;52.502;16.732;2023-02-01T23:52:52;3.47;91.58
72320;SHT30;60269;52.502;16.732;2023-02-01T23:56:29;3.51;91.52
